createdAt,value
2018-09-28T00:01:40.024Z,100448.70
2018-09-28T00:04:08.726Z,100446.11
2018-09-28T00:06:37.415Z,100448.78
2018-09-28T00:09:08.708Z,100448.41
2018-09-28T00:11:37.407Z,100444.08
2018-09-28T00:14:06.148Z,100439.70
2018-09-28T00:16:34.847Z,100443.27
2018-09-28T00:19:03.727Z,100452.05
2018-09-28T00:21:32.382Z,100447.25
2018-09-28T00:24:01.361Z,100439.83
2018-09-28T00:26:30.116Z,100442.50
2018-09-28T00:28:58.850Z,100446.48
2018-09-28T00:31:27.642Z,100449.58
2018-09-28T00:33:56.221Z,100441.72
2018-09-28T00:36:24.872Z,100434.73
2018-09-28T00:38:53.693Z,100439.59
2018-09-28T00:41:22.283Z,100435.69
2018-09-28T00:43:50.992Z,100431.77
2018-09-28T00:46:19.553Z,100437.52
2018-09-28T00:48:48.099Z,100426.59
2018-09-28T00:51:16.922Z,100427.50
2018-09-28T00:53:45.481Z,100433.22
2018-09-28T00:56:14.048Z,100431.48
2018-09-28T00:58:42.646Z,100437.19
2018-09-28T01:01:11.253Z,100428.88
2018-09-28T01:03:39.984Z,100401.81
2018-09-28T01:06:08.597Z,100435.02
2018-09-28T01:08:37.596Z,100432.39
2018-09-28T01:11:06.464Z,100428.91
2018-09-28T01:13:35.151Z,100430.19
2018-09-28T01:16:03.951Z,100432.41
2018-09-28T01:18:32.535Z,100425.84
2018-09-28T01:21:01.178Z,100423.67
2018-09-28T01:23:29.843Z,100432.87
2018-09-28T01:25:58.616Z,100420.65
2018-09-28T01:28:27.319Z,100421.10
2018-09-28T01:30:56.104Z,100424.19
2018-09-28T01:33:25.073Z,100421.13
2018-09-28T01:35:53.764Z,100422.90
2018-09-28T01:38:22.406Z,100423.33
2018-09-28T01:40:51.134Z,100419.41
2018-09-28T01:43:19.741Z,100419.41
2018-09-28T01:45:48.538Z,100417.67
2018-09-28T01:48:17.196Z,100418.58
2018-09-28T01:50:45.998Z,100412.89
2018-09-28T01:53:14.635Z,100408.98
2018-09-28T01:55:43.398Z,100424.30
2018-09-28T01:58:12.147Z,100424.30
2018-09-28T02:00:41.027Z,100434.37
2018-09-28T02:03:09.670Z,100402.97
2018-09-28T02:05:38.720Z,100434.38
2018-09-28T02:08:07.586Z,100423.93
2018-09-28T02:10:36.390Z,100433.13
2018-09-28T02:13:05.246Z,100444.95
2018-09-28T02:15:34.166Z,100431.84
2018-09-28T02:18:03.114Z,100438.84
2018-09-28T02:20:32.008Z,100435.38
2018-09-28T02:23:01.044Z,100432.75
2018-09-28T02:25:29.979Z,100436.69
2018-09-28T02:27:58.909Z,100433.20
2018-09-28T02:30:27.903Z,100431.89
2018-09-28T02:32:56.652Z,100422.70
2018-09-28T02:35:25.457Z,100430.58
2018-09-28T02:37:54.207Z,100424.90
2018-09-28T02:40:22.864Z,100433.23
2018-09-28T02:42:51.796Z,100427.09
2018-09-28T02:45:20.774Z,100429.73
2018-09-28T02:47:49.497Z,100423.61
2018-09-28T02:50:18.329Z,100428.39
2018-09-28T02:52:47.272Z,100419.66
2018-09-28T02:55:16.241Z,100422.31
2018-09-28T02:57:45.424Z,100417.92
2018-09-28T03:00:14.321Z,100463.83
2018-09-28T03:02:43.316Z,100415.76
2018-09-28T03:05:12.175Z,100422.33
2018-09-28T03:07:41.071Z,100423.63
2018-09-28T03:10:09.802Z,100419.28
2018-09-28T03:12:38.715Z,100410.97
2018-09-28T03:15:07.403Z,100411.41
2018-09-28T03:17:36.148Z,100414.91
2018-09-28T03:20:05.405Z,100410.97
2018-09-28T03:22:34.041Z,100415.79
2018-09-28T03:25:02.879Z,100410.95
2018-09-28T03:27:31.635Z,100419.70
2018-09-28T03:30:00.331Z,100418.84
2018-09-28T03:32:29.011Z,100418.41
2018-09-28T03:34:57.681Z,100421.91
2018-09-28T03:37:26.551Z,100420.59
2018-09-28T03:39:55.359Z,100422.31
2018-09-28T03:42:24.075Z,100421.02
2018-09-28T03:44:53.264Z,100424.08
2018-09-28T03:47:22.215Z,100425.81
2018-09-28T03:49:51.042Z,100428.42
2018-09-28T03:52:19.835Z,100435.00
2018-09-28T03:54:48.553Z,100428.00
2018-09-28T03:57:17.294Z,100431.92
2018-09-28T03:59:46.055Z,100430.64
2018-09-28T04:02:14.887Z,100434.10
2018-09-28T04:04:43.704Z,100434.98
2018-09-28T04:07:12.464Z,100430.19
2018-09-28T04:09:41.104Z,100436.30
2018-09-28T04:12:09.866Z,100439.38
2018-09-28T04:14:38.738Z,100445.02
2018-09-28T04:17:07.309Z,100444.17
2018-09-28T04:19:36.082Z,100438.48
2018-09-28T04:22:04.847Z,100448.98
2018-09-28T04:24:33.572Z,100445.05
2018-09-28T04:27:02.269Z,100451.14
2018-09-28T04:29:30.949Z,100448.98
2018-09-28T04:31:59.739Z,100445.50
2018-09-28T04:34:28.567Z,100440.25
2018-09-28T04:36:57.227Z,100439.39
2018-09-28T04:39:25.696Z,100441.97
2018-09-28T04:41:54.337Z,100442.86
2018-09-28T04:44:22.905Z,100440.23
2018-09-28T04:46:51.469Z,100446.78
2018-09-28T04:49:19.960Z,100450.27
2018-09-28T04:51:49.350Z,100453.78
2018-09-28T04:54:17.938Z,100455.52
2018-09-28T04:56:46.787Z,100453.77
2018-09-28T04:59:15.341Z,100459.91
2018-09-28T05:01:43.943Z,100451.14
2018-09-28T05:04:12.678Z,100469.06
2018-09-28T05:06:41.203Z,100479.12
2018-09-28T05:09:12.080Z,100479.98
2018-09-28T05:11:40.885Z,100485.23
2018-09-28T05:14:09.868Z,100474.36
2018-09-28T05:16:43.010Z,100468.23
2018-09-28T05:19:12.102Z,100478.25
2018-09-28T05:21:40.639Z,100484.37
2018-09-28T05:24:09.279Z,100489.18
2018-09-28T05:26:38.250Z,100487.83
2018-09-28T05:29:07.128Z,100485.62
2018-09-28T05:31:35.621Z,100492.16
2018-09-28T05:34:04.096Z,100491.67
2018-09-28T05:36:32.552Z,100500.39
2018-09-28T05:39:01.090Z,100507.38
2018-09-28T05:41:29.615Z,100505.16
2018-09-28T05:43:58.163Z,100516.97
2018-09-28T05:46:26.756Z,100516.94
2018-09-28T05:48:55.251Z,100525.69
2018-09-28T05:51:24.042Z,100525.66
2018-09-28T05:53:52.749Z,100526.56
2018-09-28T05:56:21.602Z,100525.24
2018-09-28T05:58:55.332Z,100529.18
2018-09-28T06:01:29.343Z,100533.55
2018-09-28T06:04:03.157Z,100535.73
2018-09-28T06:06:31.756Z,100544.51
2018-09-28T06:09:00.423Z,100541.41
2018-09-28T06:11:29.181Z,100539.61
2018-09-28T06:13:57.778Z,100538.27
2018-09-28T06:16:26.456Z,100547.45
2018-09-28T06:18:55.091Z,100557.94
2018-09-28T06:21:23.641Z,100554.38
2018-09-28T06:23:52.265Z,100555.66
2018-09-28T06:26:20.830Z,100555.20
2018-09-28T06:28:49.441Z,100565.27
2018-09-28T06:31:18.320Z,100570.06
2018-09-28T06:33:47.822Z,100567.84
2018-09-28T06:36:17.252Z,100562.97
2018-09-28T06:38:45.890Z,100539.40
2018-09-28T06:41:28.569Z,100571.72
2018-09-28T06:44:07.590Z,100573.92
2018-09-28T06:46:37.040Z,100581.36
2018-09-28T06:49:05.693Z,100590.13
2018-09-28T06:51:34.327Z,100598.91
2018-09-28T06:54:02.983Z,100596.25
2018-09-28T06:56:32.424Z,100596.65
2018-09-28T06:59:13.635Z,100592.70
2018-09-28T07:01:43.673Z,100595.73
2018-09-28T07:04:12.663Z,100597.90
2018-09-28T07:06:41.250Z,100597.47
2018-09-28T07:09:16.208Z,100596.58
2018-09-28T07:11:45.250Z,100610.66
2018-09-28T07:14:13.858Z,100610.23
2018-09-28T07:16:42.521Z,100612.40
2018-09-28T07:19:11.161Z,100605.79
2018-09-28T07:21:39.983Z,100613.23
2018-09-28T07:24:08.616Z,100621.97
2018-09-28T07:26:37.195Z,100625.92
2018-09-28T07:29:05.870Z,100625.46
2018-09-28T07:31:34.478Z,100621.91
2018-09-28T07:34:03.167Z,100624.50
2018-09-28T07:36:31.991Z,100626.67
2018-09-28T07:39:00.497Z,100630.59
2018-09-28T07:41:29.261Z,100633.18
2018-09-28T07:43:58.333Z,100635.31
2018-09-28T07:46:27.000Z,100647.59
2018-09-28T07:48:55.648Z,100645.34
2018-09-28T07:51:24.356Z,100649.22
2018-09-28T07:54:01.110Z,100661.02
2018-09-28T07:59:18.829Z,100662.38
2018-09-28T08:01:48.472Z,100666.75
2018-09-28T08:04:37.985Z,100669.39
2018-09-28T08:07:06.639Z,100668.15
2018-09-28T08:09:35.291Z,100672.95
2018-09-28T08:12:09.113Z,100676.91
2018-09-28T08:14:46.507Z,100680.42
2018-09-28T08:17:15.677Z,100684.80
2018-09-28T08:19:44.441Z,100690.07
2018-09-28T08:22:13.079Z,100693.55
2018-09-28T08:24:41.713Z,100699.64
2018-09-28T08:27:10.260Z,100704.83
2018-09-28T08:29:38.855Z,100703.01
2018-09-28T08:32:07.520Z,100706.92
2018-09-28T08:34:36.188Z,100713.00
2018-09-28T08:37:04.848Z,100708.11
2018-09-28T08:39:33.386Z,100716.78
2018-09-28T08:42:02.080Z,100734.75
2018-09-28T08:44:31.711Z,100721.06
2018-09-28T08:47:00.338Z,100716.62
2018-09-28T08:49:29.018Z,100724.06
2018-09-28T08:51:58.334Z,100723.60
2018-09-28T08:54:27.063Z,100731.50
2018-09-28T08:56:56.096Z,100742.91
2018-09-28T08:59:24.937Z,100747.31
2018-09-28T09:01:53.722Z,100757.39
2018-09-28T09:04:22.461Z,100755.17
2018-09-28T09:06:51.693Z,100755.14
2018-09-28T09:09:20.479Z,100761.68
2018-09-28T09:11:49.132Z,100760.34
2018-09-28T09:14:17.914Z,100758.52
2018-09-28T09:16:46.600Z,100759.36
2018-09-28T09:19:16.586Z,100758.42
2018-09-28T09:21:45.284Z,100761.89
2018-09-28T09:24:13.968Z,100767.11
2018-09-28T09:26:42.687Z,100768.86
2018-09-28T09:29:11.525Z,100770.64
2018-09-28T09:31:40.154Z,100773.22
2018-09-28T09:34:10.053Z,100782.83
2018-09-28T09:36:38.645Z,100783.67
2018-09-28T09:39:12.800Z,100786.31
2018-09-28T09:41:41.718Z,100790.75
2018-09-28T09:44:10.389Z,100791.60
2018-09-28T09:46:39.027Z,100784.58
2018-09-28T09:49:07.792Z,100793.77
2018-09-28T09:51:36.396Z,100803.84
2018-09-28T09:54:05.064Z,100802.10
2018-09-28T09:56:33.697Z,100807.38
2018-09-28T09:59:02.319Z,100810.07
2018-09-28T10:01:36.250Z,100807.85
2018-09-28T10:04:07.974Z,100815.34
2018-09-28T10:06:36.755Z,100823.22
2018-09-28T10:09:08.607Z,100820.58
2018-09-28T10:11:37.552Z,100826.70
2018-09-28T10:14:06.361Z,100824.58
2018-09-28T10:16:34.882Z,100830.65
2018-09-28T10:19:03.480Z,100827.13
2018-09-28T10:21:32.224Z,100829.23
2018-09-28T10:24:01.124Z,100826.91
2018-09-28T10:26:29.938Z,100825.47
2018-09-28T10:28:58.702Z,100823.72
2018-09-28T10:31:27.409Z,100829.78
2018-09-28T10:33:56.099Z,100834.95
2018-09-28T10:36:24.803Z,100831.79
2018-09-28T10:38:53.747Z,100835.23
2018-09-28T10:41:22.553Z,100831.66
2018-09-28T10:43:51.366Z,100831.19
2018-09-28T10:46:20.376Z,100830.75
2018-09-28T10:48:48.961Z,100831.19
2018-09-28T10:51:17.912Z,100836.52
2018-09-28T10:53:46.660Z,100852.39
2018-09-28T10:56:15.166Z,100864.45
2018-09-28T10:58:43.746Z,100860.48
2018-09-28T11:01:12.412Z,100848.16
2018-09-28T11:03:41.056Z,100850.36
2018-09-28T11:06:09.677Z,100854.31
2018-09-28T11:08:38.286Z,100850.34
2018-09-28T11:11:06.843Z,100861.80
2018-09-28T11:13:35.485Z,100864.03
2018-09-28T11:16:04.202Z,100869.31
2018-09-28T11:18:32.985Z,100862.17
2018-09-28T11:21:01.724Z,100871.34
2018-09-28T11:23:30.316Z,100864.28
2018-09-28T11:25:58.929Z,100869.14
2018-09-28T11:28:27.566Z,100868.23
2018-09-28T11:30:56.200Z,100860.73
2018-09-28T11:33:24.816Z,100861.56
2018-09-28T11:35:53.461Z,100860.25
2018-09-28T11:38:22.080Z,100861.02
2018-09-28T11:40:50.835Z,100860.20
2018-09-28T11:43:19.474Z,100862.42
2018-09-28T11:45:48.259Z,100863.24
2018-09-28T11:48:16.898Z,100863.11
2018-09-28T11:50:45.500Z,100864.19
2018-09-28T11:53:14.175Z,100864.36
2018-09-28T11:55:43.017Z,100862.40
2018-09-28T11:58:11.630Z,100861.77
2018-09-28T12:00:40.179Z,100854.80
2018-09-28T12:03:08.910Z,100854.61
2018-09-28T12:05:37.523Z,100853.77
2018-09-28T12:08:06.179Z,100857.34
2018-09-28T12:10:34.913Z,100845.46
2018-09-28T12:13:03.507Z,100854.72
2018-09-28T12:15:32.470Z,100844.97
2018-09-28T12:18:01.411Z,100852.75
2018-09-28T12:20:30.034Z,100854.54
2018-09-28T12:22:58.595Z,100846.05
2018-09-28T12:25:27.244Z,100839.44
2018-09-28T12:27:55.815Z,100843.84
2018-09-28T12:30:25.307Z,100845.64
2018-09-28T12:32:54.019Z,100851.62
2018-09-28T12:35:22.685Z,100847.63
2018-09-28T12:37:51.378Z,100845.34
2018-09-28T12:40:19.943Z,100840.66
2018-09-28T12:42:48.748Z,100841.78
2018-09-28T12:45:17.509Z,100843.77
2018-09-28T12:47:46.373Z,100841.84
2018-09-28T12:50:15.057Z,100849.46
2018-09-28T12:52:43.620Z,100851.92
2018-09-28T12:55:12.167Z,100851.50
2018-09-28T12:57:40.893Z,100855.41
2018-09-28T13:00:09.541Z,100856.22
2018-09-28T13:02:38.091Z,100857.52
2018-09-28T13:05:06.748Z,100859.70
2018-09-28T13:07:35.376Z,100860.09
2018-09-28T13:10:03.950Z,100863.50
2018-09-28T13:12:32.511Z,100860.67
2018-09-28T13:15:01.273Z,100862.78
2018-09-28T13:17:29.909Z,100859.66
2018-09-28T13:19:58.518Z,100857.09
2018-09-28T13:22:27.061Z,100863.97
2018-09-28T13:24:55.670Z,100862.86
2018-09-28T13:27:24.224Z,100856.71
2018-09-28T13:29:52.833Z,100859.41
2018-09-28T13:32:21.513Z,100856.48
2018-09-28T13:34:50.126Z,100851.27
2018-09-28T13:37:18.903Z,100848.70
2018-09-28T13:39:47.558Z,100841.68
2018-09-28T13:42:16.283Z,100839.34
2018-09-28T13:44:45.158Z,100829.50
2018-09-28T13:47:13.664Z,100832.12
2018-09-28T13:49:42.364Z,100824.94
2018-09-28T13:52:10.924Z,100837.37
2018-09-28T13:54:39.503Z,100834.69
2018-09-28T13:57:14.645Z,100834.88
2018-09-28T13:59:43.270Z,100833.65
2018-09-28T14:02:11.895Z,100835.70
2018-09-28T14:04:40.433Z,100834.91
2018-09-28T14:07:09.152Z,100835.04
2018-09-28T14:09:37.812Z,100839.72
2018-09-28T14:12:06.530Z,100834.16
2018-09-28T14:14:35.035Z,100832.54
2018-09-28T14:17:03.609Z,100835.67
2018-09-28T14:19:32.062Z,100834.63
2018-09-28T14:22:01.026Z,100839.47
2018-09-28T14:24:30.534Z,100848.98
2018-09-28T14:26:59.114Z,100854.97
2018-09-28T14:29:27.746Z,100855.52
2018-09-28T14:32:00.050Z,100849.20
2018-09-28T14:34:29.694Z,100850.61
2018-09-28T14:37:01.431Z,100851.35
2018-09-28T14:39:30.640Z,100852.25
2018-09-28T14:41:59.488Z,100852.35
2018-09-28T14:44:28.515Z,100857.30
2018-09-28T14:46:57.212Z,100857.16
2018-09-28T14:49:25.893Z,100855.95
2018-09-28T14:51:54.787Z,100855.69
2018-09-28T14:54:23.918Z,100859.84
2018-09-28T14:56:52.731Z,100865.03
2018-09-28T14:59:21.307Z,100865.30
2018-09-28T15:01:50.950Z,100870.42
2018-09-28T15:04:19.696Z,100867.55
2018-09-28T15:06:48.362Z,100860.24
2018-09-28T15:09:17.023Z,100865.76
2018-09-28T15:11:45.801Z,100871.58
2018-09-28T15:14:14.684Z,100869.09
2018-09-28T15:16:43.571Z,100867.52
2018-09-28T15:19:12.156Z,100864.11
2018-09-28T15:21:40.755Z,100868.94
2018-09-28T15:24:09.427Z,100873.80
2018-09-28T15:26:37.989Z,100869.02
2018-09-28T15:29:06.692Z,100870.42
2018-09-28T15:31:35.337Z,100874.39
2018-09-28T15:34:04.001Z,100787.66
2018-09-28T15:36:33.135Z,100872.23
2018-09-28T15:39:01.767Z,100873.48
2018-09-28T15:41:30.640Z,100873.48
2018-09-28T15:43:59.253Z,100876.57
2018-09-28T15:46:27.776Z,100879.31
2018-09-28T15:48:56.452Z,100885.94
2018-09-28T15:51:25.332Z,100885.17
2018-09-28T15:53:54.071Z,100881.29
2018-09-28T15:56:22.737Z,100878.63
2018-09-28T15:58:51.337Z,100884.27
2018-09-28T16:01:20.004Z,100885.11
2018-09-28T16:03:48.648Z,100885.58
2018-09-28T16:06:17.325Z,100896.20
2018-09-28T16:08:45.917Z,100897.51
2018-09-28T16:11:15.425Z,100898.91
2018-09-28T16:13:44.197Z,100895.55
2018-09-28T16:16:12.979Z,100908.11
2018-09-28T16:18:42.543Z,100908.73
2018-09-28T16:21:11.242Z,100905.32
2018-09-28T16:23:39.853Z,100910.77
2018-09-28T16:26:08.498Z,100907.33
2018-09-28T16:28:37.254Z,100914.08
2018-09-28T16:31:05.919Z,100916.48
2018-09-28T16:33:34.659Z,100918.87
2018-09-28T16:36:03.412Z,100922.50
2018-09-28T16:38:32.004Z,100929.30
2018-09-28T16:41:05.960Z,100918.80
2018-09-28T16:43:46.479Z,100922.48
2018-09-28T16:46:16.401Z,100928.33
2018-09-28T16:48:47.915Z,100931.99
2018-09-28T16:51:19.478Z,100935.61
2018-09-28T16:56:40.961Z,100944.63
2018-09-28T16:59:19.579Z,100949.23
2018-09-28T17:01:51.234Z,100947.98
2018-09-28T17:04:23.900Z,100943.70
2018-09-28T17:06:57.246Z,100960.04
2018-09-28T17:09:25.774Z,100957.92
2018-09-28T17:11:54.336Z,100957.12
2018-09-28T17:14:22.896Z,100965.13
2018-09-28T17:16:51.652Z,100967.82
2018-09-28T17:19:20.212Z,100969.66
2018-09-28T17:21:50.962Z,100971.06
2018-09-28T17:24:19.818Z,100966.72
2018-09-28T17:26:49.525Z,100987.87
2018-09-28T17:29:18.534Z,100990.11
2018-09-28T17:31:48.264Z,100990.16
2018-09-28T17:34:18.760Z,101004.73
2018-09-28T17:36:47.630Z,101020.59
2018-09-28T17:39:16.194Z,101015.80
2018-09-28T17:41:44.797Z,101012.30
2018-09-28T17:44:13.466Z,101011.47
2018-09-28T17:46:42.300Z,101014.59
2018-09-28T17:49:10.937Z,101013.30
2018-09-28T17:51:39.552Z,101024.73
2018-09-28T17:54:08.251Z,101021.68
2018-09-28T17:56:36.875Z,101016.89
2018-09-28T17:59:05.443Z,101021.30
2018-09-28T18:01:34.113Z,101025.70
2018-09-28T18:04:04.060Z,101026.61
2018-09-28T18:06:33.161Z,101031.45
2018-09-28T18:09:02.206Z,101032.76
2018-09-28T18:11:31.903Z,101042.87
2018-09-28T18:14:00.949Z,101053.41
2018-09-28T18:16:30.337Z,101061.31
2018-09-28T18:18:59.296Z,101053.41
2018-09-28T18:21:28.482Z,101063.95
2018-09-28T18:23:59.633Z,101067.02
2018-09-28T18:26:29.041Z,101063.92
2018-09-28T18:29:01.718Z,101055.14
2018-09-28T18:31:31.467Z,101056.46
2018-09-28T18:34:00.664Z,101062.16
2018-09-28T18:36:31.834Z,101072.27
2018-09-28T18:39:01.257Z,101078.00
2018-09-28T18:41:30.778Z,101081.95
2018-09-28T18:44:00.623Z,101085.08
2018-09-28T18:46:36.486Z,101090.78
2018-09-28T18:49:05.737Z,100438.75
2018-09-28T18:51:36.551Z,101097.39
2018-09-28T18:54:06.905Z,101096.08
2018-09-28T18:56:36.046Z,101106.62
2018-09-28T18:59:06.125Z,101112.33
2018-09-28T19:01:35.516Z,101113.65
2018-09-28T19:04:05.496Z,101115.40
2018-09-28T19:06:34.319Z,101117.14
2018-09-28T19:09:03.155Z,101124.16
2018-09-28T19:11:37.466Z,101120.62
2018-09-28T19:14:06.269Z,101122.81
2018-09-28T19:16:34.922Z,101135.55
2018-09-28T19:19:03.654Z,101128.94
2018-09-28T19:21:32.466Z,101118.42
2018-09-28T19:24:01.260Z,101118.42
2018-09-28T19:26:30.139Z,101114.02
2018-09-28T19:28:58.844Z,101118.41
2018-09-28T19:31:27.660Z,101117.52
2018-09-28T19:33:56.364Z,101127.59
2018-09-28T19:36:24.996Z,101131.09
2018-09-28T19:38:53.857Z,101122.77
2018-09-28T19:41:22.572Z,101126.26
2018-09-28T19:43:52.023Z,101128.89
2018-09-28T19:46:21.025Z,101134.12
2018-09-28T19:48:49.723Z,101135.89
2018-09-28T19:51:18.661Z,101132.80
2018-09-28T19:53:47.530Z,101139.80
2018-09-28T19:56:16.173Z,101150.30
2018-09-28T19:58:44.817Z,101150.72
2018-09-28T20:01:13.471Z,101107.20
2018-09-28T20:06:52.917Z,101153.27
2018-09-28T20:09:21.886Z,101157.19
2018-09-28T20:11:51.132Z,101167.26
2018-09-28T20:14:20.508Z,101164.60
2018-09-28T20:16:51.076Z,101173.30
2018-09-28T20:19:20.216Z,101173.70
2018-09-28T20:21:49.389Z,101291.89
2018-09-28T20:24:18.764Z,101149.42
2018-09-28T20:26:48.099Z,101176.67
2018-09-28T20:29:16.848Z,101181.43
2018-09-28T20:31:45.625Z,101189.27
2018-09-28T20:34:14.298Z,101187.47
2018-09-28T20:36:43.051Z,101191.38
2018-09-28T20:39:13.256Z,101187.85
2018-09-28T20:41:42.467Z,101196.57
2018-09-28T20:44:11.195Z,101204.86
2018-09-28T20:46:39.821Z,101211.38
2018-09-28T20:49:08.665Z,101208.72
2018-09-28T20:51:37.598Z,101209.54
2018-09-28T20:54:06.248Z,101208.62
2018-09-28T20:56:35.398Z,101208.55
2018-09-28T20:59:04.203Z,101213.76
2018-09-28T21:01:32.819Z,101212.40
2018-09-28T21:04:01.569Z,101206.69
2018-09-28T21:06:30.345Z,101211.02
2018-09-28T21:08:59.300Z,101215.77
2018-09-28T21:11:28.044Z,101227.55
2018-09-28T21:13:56.829Z,101230.56
2018-09-28T21:16:25.947Z,101228.34
2018-09-28T21:18:54.749Z,101236.59
2018-09-28T21:21:23.666Z,101227.80
2018-09-28T21:23:52.287Z,101231.30
2018-09-28T21:26:21.012Z,100957.19
2018-09-28T21:28:49.577Z,101227.69
2018-09-28T21:31:18.114Z,101234.19
2018-09-28T21:33:46.903Z,100918.76
2018-09-28T21:36:15.616Z,101234.55
2018-09-28T21:38:44.303Z,101236.25
2018-09-28T21:41:12.877Z,101236.63
2018-09-28T21:43:41.736Z,101233.53
2018-09-28T21:46:10.387Z,101241.36
2018-09-28T21:48:39.074Z,101245.72
2018-09-28T21:51:07.729Z,101245.20
2018-09-28T21:53:36.560Z,101239.00
2018-09-28T21:56:05.140Z,101241.59
2018-09-28T21:58:33.898Z,101236.31
2018-09-28T22:01:02.579Z,101241.49
2018-09-28T22:03:31.210Z,101240.56
2018-09-28T22:05:59.894Z,101239.22
2018-09-28T22:08:28.904Z,101238.73
2018-09-28T22:10:57.995Z,101239.12
2018-09-28T22:13:26.765Z,101243.02
2018-09-28T22:15:55.457Z,101243.42
2018-09-28T22:18:24.239Z,101242.05
2018-09-28T22:20:52.910Z,101242.91
2018-09-28T22:23:21.601Z,101245.48
2018-09-28T22:25:50.506Z,101249.77
2018-09-28T22:28:19.078Z,101254.03
2018-09-28T22:30:47.774Z,101250.51
2018-09-28T22:33:16.359Z,101259.16
2018-09-28T22:35:45.120Z,101251.67
2018-09-28T22:38:13.711Z,101259.45
2018-09-28T22:40:42.414Z,101255.48
2018-09-28T22:43:11.119Z,101258.95
2018-09-28T22:45:39.831Z,101251.06
2018-09-28T22:48:08.734Z,101255.36
2018-09-28T22:50:37.547Z,101259.25
2018-09-28T22:53:06.433Z,101253.52
2018-09-28T22:55:35.135Z,101246.12
2018-09-28T22:58:10.080Z,101233.00
2018-09-28T23:00:38.786Z,101232.95
2018-09-28T23:03:07.488Z,101241.18
2018-09-28T23:05:36.310Z,101247.27
2018-09-28T23:08:04.979Z,101251.20
2018-09-28T23:10:33.655Z,101251.16
2018-09-28T23:13:02.358Z,101245.88
2018-09-28T23:15:31.098Z,101242.77
2018-09-28T23:17:59.903Z,101235.33
2018-09-28T23:20:28.617Z,101232.63
2018-09-28T23:22:57.216Z,101036.29
2018-09-28T23:25:26.083Z,101250.37
2018-09-28T23:27:54.822Z,101250.30
2018-09-28T23:30:23.467Z,101248.94
2018-09-28T23:32:52.018Z,101246.73
2018-09-28T23:35:20.636Z,101261.03
2018-09-28T23:37:49.177Z,101261.89
2018-09-28T23:40:17.862Z,101257.92
2018-09-28T23:42:46.417Z,101266.17
2018-09-28T23:45:15.372Z,101269.19
2018-09-28T23:47:44.047Z,101272.58
2018-09-28T23:50:12.660Z,101272.08
2018-09-28T23:58:22.158Z,101276.48
